Time;durP1;ratioP1;P1;durP2;ratioP2;P2;SDS_P1;SDS_P2;PMS_P1;PMS_P2;Temp;Humidity;BMP_temperature;BMP_pressure;BME280_temperature;BME280_humidity;BME280_pressure;Samples;Min_cycle;Max_cycle;Signal;HPM_P1;HPM_P2
2021/04/05 00:02:13;;;;;;;1999.90;999.90;;;;;;;2.94;68.07;97876.13;5018619;28;20112;-65
2021/04/05 00:04:40;;;;;;;1999.90;999.90;;;;;;;3.09;67.93;97869.72;5024035;28;20081;-65
2021/04/05 00:07:06;;;;;;;1999.90;999.90;;;;;;;3.02;67.94;97866.50;5019463;28;20057;-65
2021/04/05 00:09:32;;;;;;;1999.90;999.90;;;;;;;3.06;67.96;97859.34;5027975;28;20049;-65
2021/04/05 00:11:59;;;;;;;1999.90;999.90;;;;;;;3.22;67.65;97861.97;5024468;28;20463;-65
2021/04/05 00:14:26;;;;;;;1999.90;999.90;;;;;;;3.06;67.49;97851.16;5018105;28;20508;-65
2021/04/05 00:16:53;;;;;;;1999.90;999.90;;;;;;;2.97;68.25;97850.16;5018852;28;20105;-65
2021/04/05 00:19:20;;;;;;;1999.90;999.90;;;;;;;3.16;67.62;97839.34;5019312;28;20768;-65
2021/04/05 00:21:46;;;;;;;1999.90;999.90;;;;;;;3.06;67.85;97851.16;5024758;28;20100;-65
2021/04/05 00:24:12;;;;;;;1999.90;999.90;;;;;;;3.22;67.41;97838.16;5022690;28;20560;-65
2021/04/05 00:26:38;;;;;;;1999.90;999.90;;;;;;;3.34;67.07;97840.50;5018840;28;21836;-65
2021/04/05 00:29:04;;;;;;;1999.90;999.90;;;;;;;3.18;67.27;97840.66;5022643;28;20130;-65
2021/04/05 00:31:30;;;;;;;1999.90;999.90;;;;;;;3.27;67.05;97838.09;5022069;28;20051;-65
2021/04/05 00:33:57;;;;;;;1999.90;999.90;;;;;;;3.13;67.51;97829.78;5024838;28;20085;-65
2021/04/05 00:36:23;;;;;;;1999.90;999.90;;;;;;;3.27;66.84;97824.44;5018942;28;20050;-65
2021/04/05 00:38:49;;;;;;;1999.90;999.90;;;;;;;3.05;67.28;97819.50;5018015;28;20046;-65
2021/04/05 00:41:16;;;;;;;1999.90;999.90;;;;;;;2.96;66.95;97813.03;5020793;28;20049;-65
2021/04/05 00:43:47;;;;;;;1999.90;999.90;;;;;;;3.24;66.54;97802.34;5023873;28;20038;-65
2021/04/05 00:46:19;;;;;;;1999.90;999.90;;;;;;;3.43;66.19;97792.28;5019300;28;20046;-65
2021/04/05 00:48:46;;;;;;;1999.90;999.90;;;;;;;3.49;65.82;97798.50;5023678;28;20223;-65
2021/04/05 00:51:16;;;;;;;1999.90;999.90;;;;;;;3.25;66.27;97798.53;5020270;28;20050;-65
2021/04/05 00:53:45;;;;;;;1999.90;999.90;;;;;;;3.48;66.08;97784.03;5021365;28;20057;-65
2021/04/05 00:56:14;;;;;;;1999.90;999.90;;;;;;;3.48;65.40;97775.81;5025194;28;20046;-65
2021/04/05 00:58:41;;;;;;;1999.90;999.90;;;;;;;3.23;65.93;97776.97;5018509;28;20141;-65
2021/04/05 01:01:10;;;;;;;1999.90;999.90;;;;;;;3.18;66.18;97766.88;5014092;28;20053;-65
2021/04/05 01:03:39;;;;;;;1999.90;999.90;;;;;;;2.89;67.01;97772.41;5015231;28;20045;-65
2021/04/05 01:06:14;;;;;;;1999.90;999.90;;;;;;;2.71;67.68;97768.50;5019280;28;20168;-65
2021/04/05 01:08:40;;;;;;;1999.90;999.90;;;;;;;2.76;67.69;97765.72;5013476;28;20077;-65
2021/04/05 01:11:09;;;;;;;1999.90;999.90;;;;;;;2.83;67.48;97759.91;5018133;28;20063;-65
2021/04/05 01:13:35;;;;;;;1999.90;999.90;;;;;;;2.79;67.52;97753.41;5028363;28;20104;-65
2021/04/05 01:16:02;;;;;;;1999.90;999.90;;;;;;;3.10;66.43;97753.06;5017047;28;20042;-65
2021/04/05 01:18:29;;;;;;;1999.90;999.90;;;;;;;2.96;66.85;97750.19;5022957;28;20103;-65
2021/04/05 01:20:55;;;;;;;1999.90;999.90;;;;;;;3.30;65.72;97741.88;5016424;28;20049;-65
2021/04/05 01:23:22;;;;;;;1999.90;999.90;;;;;;;3.13;66.21;97736.91;5022790;28;20060;-65
2021/04/05 01:25:49;;;;;;;1999.90;999.90;;;;;;;3.19;65.78;97734.91;5017949;28;20048;-66
2021/04/05 01:28:16;;;;;;;1999.90;999.90;;;;;;;3.20;66.07;97725.63;5020934;28;20046;-65
2021/04/05 01:30:54;;;;;;;1999.90;999.90;;;;;;;3.09;65.86;97724.91;5014884;28;20042;-65
2021/04/05 01:33:30;;;;;;;1999.90;999.90;;;;;;;3.11;66.24;97714.53;5018157;28;20477;-65
2021/04/05 01:36:01;;;;;;;1999.90;999.90;;;;;;;3.17;66.06;97699.69;5015980;28;20052;-65
2021/04/05 01:38:45;;;;;;;1999.90;999.90;;;;;;;2.97;66.82;97705.41;5016670;28;20390;-65
2021/04/05 01:41:23;;;;;;;1999.90;999.90;;;;;;;3.12;66.28;97701.66;5016486;28;20447;-65
2021/04/05 01:43:49;;;;;;;1999.90;999.90;;;;;;;2.72;66.72;97699.13;5014598;28;20046;-65
2021/04/05 01:46:18;;;;;;;1999.90;999.90;;;;;;;2.97;66.71;97689.81;5023296;28;20045;-65
2021/04/05 01:48:45;;;;;;;1999.90;999.90;;;;;;;3.06;66.43;97686.47;5011201;28;20045;-65
2021/04/05 01:51:17;;;;;;;1999.90;999.90;;;;;;;3.00;66.72;97678.31;5017573;28;20111;-65
2021/04/05 01:53:44;;;;;;;1999.90;999.90;;;;;;;3.15;65.96;97669.09;5017438;28;20046;-65
2021/04/05 01:56:12;;;;;;;1999.90;999.90;;;;;;;3.33;65.30;97663.94;5017796;28;20571;-65
2021/04/05 01:58:42;;;;;;;1999.90;999.90;;;;;;;3.32;65.40;97665.03;5026113;28;20064;-65
2021/04/05 02:01:10;;;;;;;1999.90;999.90;;;;;;;3.40;65.01;97653.47;5018155;28;20053;-65
2021/04/05 02:03:37;;;;;;;1999.90;999.90;;;;;;;3.41;65.07;97651.53;5020375;28;20402;-64
2021/04/05 02:06:08;;;;;;;1999.90;999.90;;;;;;;2.85;66.82;97647.66;5014829;28;20057;-65
2021/04/05 02:08:37;;;;;;;1999.90;999.90;;;;;;;3.05;66.44;97655.59;5019945;28;20476;-65
2021/04/05 02:11:15;;;;;;;1999.90;999.90;;;;;;;3.11;66.37;97654.44;5012625;28;20058;-65
2021/04/05 02:13:44;;;;;;;1999.90;999.90;;;;;;;3.02;66.27;97647.97;5016899;28;20050;-65
2021/04/05 02:16:15;;;;;;;1999.90;999.90;;;;;;;3.13;66.18;97632.28;5022938;28;20529;-65
2021/04/05 02:18:42;;;;;;;1999.90;999.90;;;;;;;2.76;67.20;97645.56;5017200;28;20054;-65
2021/04/05 02:21:15;;;;;;;1999.90;999.90;;;;;;;2.73;66.95;97646.16;5017429;28;20076;-65
2021/04/05 02:23:43;;;;;;;1999.90;999.90;;;;;;;2.61;66.72;97637.56;5011755;28;20452;-65
2021/04/05 02:26:17;;;;;;;1999.90;999.90;;;;;;;2.84;66.59;97630.44;5020433;28;20500;-65
2021/04/05 02:28:48;;;;;;;1999.90;999.90;;;;;;;2.97;66.07;97624.28;5022512;28;20048;-65
2021/04/05 02:31:19;;;;;;;1999.90;999.90;;;;;;;3.08;65.82;97618.66;5021707;28;20046;-65
2021/04/05 02:33:49;;;;;;;1999.90;999.90;;;;;;;2.92;66.00;97615.34;5014704;28;20050;-65
2021/04/05 02:36:17;;;;;;;1999.90;999.90;;;;;;;2.63;66.86;97608.06;5023990;28;20103;-65
2021/04/05 02:38:48;;;;;;;1999.90;999.90;;;;;;;2.68;66.58;97621.66;5023731;28;20049;-65
2021/04/05 02:41:15;;;;;;;1999.90;999.90;;;;;;;2.93;66.20;97608.75;5027417;28;20056;-65
2021/04/05 02:43:42;;;;;;;1999.90;999.90;;;;;;;2.69;67.04;97593.22;5022465;28;20061;-65
2021/04/05 02:46:19;;;;;;;1999.90;999.90;;;;;;;2.78;66.82;97594.22;5019184;28;20534;-65
2021/04/05 02:48:47;;;;;;;1999.90;999.90;;;;;;;2.66;67.23;97582.09;5020256;28;20049;-65
2021/04/05 02:51:15;;;;;;;1999.90;999.90;;;;;;;2.73;66.61;97580.63;5022120;28;20484;-65
2021/04/05 02:53:44;;;;;;;1999.90;999.90;;;;;;;2.73;67.13;97569.72;5024523;28;20038;-65
2021/04/05 02:56:11;;;;;;;1999.90;999.90;;;;;;;2.97;65.93;97553.25;5016922;28;20054;-65
2021/04/05 02:58:43;;;;;;;1999.90;999.90;;;;;;;2.76;66.75;97547.28;5021321;28;20619;-65
2021/04/05 03:01:09;;;;;;;1999.90;999.90;;;;;;;2.83;66.28;97552.38;5027012;28;20049;-66
2021/04/05 03:03:40;;;;;;;1999.90;999.90;;;;;;;2.94;66.31;97537.47;5019046;28;20050;-66
2021/04/05 03:06:07;;;;;;;1999.90;999.90;;;;;;;2.92;65.75;97533.41;5024534;28;20184;-66
2021/04/05 03:08:34;;;;;;;1999.90;999.90;;;;;;;3.03;65.73;97534.88;5020526;28;20045;-66
2021/04/05 03:11:04;;;;;;;1999.90;999.90;;;;;;;2.73;66.88;97531.47;5020941;28;20046;-66
2021/04/05 03:13:33;;;;;;;1999.90;999.90;;;;;;;2.77;66.53;97532.53;5020337;28;20041;-66
2021/04/05 03:15:59;;;;;;;1999.90;999.90;;;;;;;2.95;65.21;97519.19;5022241;28;20511;-66
2021/04/05 03:18:27;;;;;;;1999.90;999.90;;;;;;;3.02;65.62;97516.06;5019621;28;20046;-66
2021/04/05 03:20:55;;;;;;;1999.90;999.90;;;;;;;2.97;65.66;97520.47;5020691;28;20041;-65
2021/04/05 03:23:22;;;;;;;1999.90;999.90;;;;;;;2.95;65.92;97505.53;5022804;28;20091;-65
2021/04/05 03:25:48;;;;;;;1999.90;999.90;;;;;;;2.96;65.52;97507.94;5025745;28;20440;-65
2021/04/05 03:28:17;;;;;;;1999.90;999.90;;;;;;;3.05;65.29;97504.53;5024328;28;20045;-65
2021/04/05 03:30:50;;;;;;;1999.90;999.90;;;;;;;3.06;65.23;97495.25;5023731;28;20448;-65
2021/04/05 03:33:27;;;;;;;1999.90;999.90;;;;;;;3.13;64.95;97490.22;5027899;28;20046;-65
2021/04/05 03:35:57;;;;;;;1999.90;999.90;;;;;;;3.31;64.11;97491.28;5011304;28;20053;-65
2021/04/05 03:38:24;;;;;;;1999.90;999.90;;;;;;;3.29;64.17;97477.91;5020348;28;20165;-65
2021/04/05 03:40:50;;;;;;;1999.90;999.90;;;;;;;3.39;64.21;97468.72;5023827;28;20053;-65
2021/04/05 03:43:38;;;;;;;1999.90;999.90;;;;;;;3.23;64.18;97464.63;5023585;28;20045;-65
2021/04/05 03:46:15;;;;;;;1999.90;999.90;;;;;;;3.44;63.85;97454.97;5017895;28;20050;-65
2021/04/05 03:48:53;;;;;;;1999.90;999.90;;;;;;;2.66;65.87;97449.13;5018982;28;20053;-65
2021/04/05 03:51:28;;;;;;;1999.90;999.90;;;;;;;3.11;64.79;97448.69;5020490;28;20103;-65
2021/04/05 03:54:07;;;;;;;1999.90;999.90;;;;;;;3.24;64.46;97438.94;5015987;28;20050;-65
2021/04/05 03:56:36;;;;;;;1999.90;999.90;;;;;;;3.20;64.33;97433.28;5019926;28;20054;-65
2021/04/05 03:59:05;;;;;;;1999.90;999.90;;;;;;;3.02;64.94;97436.84;5023651;28;20532;-65
2021/04/05 04:01:38;;;;;;;1999.90;999.90;;;;;;;2.82;65.65;97431.41;5018918;28;20057;-65
2021/04/05 04:04:10;;;;;;;1999.90;999.90;;;;;;;2.74;65.64;97423.91;5023498;28;20049;-64
2021/04/05 04:09:13;;;;;;;1999.90;999.90;;;;;;;2.99;65.25;97405.47;5021775;28;20046;-65
2021/04/05 04:11:40;;;;;;;1999.90;999.90;;;;;;;2.86;65.14;97403.50;5014315;28;20050;-65
2021/04/05 04:14:09;;;;;;;1999.90;999.90;;;;;;;2.91;64.97;97390.59;5020172;28;20106;-65
2021/04/05 04:16:36;;;;;;;1999.90;999.90;;;;;;;3.04;65.12;97390.91;5021973;28;20099;-65
2021/04/05 04:19:05;;;;;;;1999.90;999.90;;;;;;;2.94;64.97;97383.72;5019084;28;20046;-65
2021/04/05 04:21:31;;;;;;;1999.90;999.90;;;;;;;2.85;65.05;97375.41;5017999;28;20045;-65
2021/04/05 04:23:59;;;;;;;1999.90;999.90;;;;;;;2.84;65.47;97371.03;5026743;28;20131;-67
2021/04/05 04:26:26;;;;;;;1999.90;999.90;;;;;;;2.77;65.64;97357.78;5024186;28;20072;-65
2021/04/05 04:28:52;;;;;;;1999.90;999.90;;;;;;;2.97;64.88;97364.00;5018818;28;20108;-65
2021/04/05 04:31:21;;;;;;;1999.90;999.90;;;;;;;2.71;65.59;97358.97;5026015;28;20061;-65
2021/04/05 04:33:48;;;;;;;1999.90;999.90;;;;;;;2.75;65.20;97349.06;5020215;28;20049;-65
2021/04/05 04:36:22;;;;;;;1999.90;999.90;;;;;;;3.03;64.23;97337.41;5022886;28;20097;-65
2021/04/05 04:38:51;;;;;;;1999.90;999.90;;;;;;;2.92;64.63;97337.59;5015839;28;20503;-65
2021/04/05 04:41:25;;;;;;;1999.90;999.90;;;;;;;2.86;64.64;97341.53;5023654;28;20057;-65
2021/04/05 04:44:02;;;;;;;1999.90;999.90;;;;;;;2.99;64.22;97338.03;5020200;28;20048;-65
2021/04/05 04:46:29;;;;;;;1999.90;999.90;;;;;;;3.12;63.72;97341.88;5018556;28;20054;-65
2021/04/05 04:48:57;;;;;;;1999.90;999.90;;;;;;;3.29;63.14;97343.19;5017425;28;20489;-65
2021/04/05 04:51:23;;;;;;;1999.90;999.90;;;;;;;3.33;62.80;97336.84;5025864;28;20052;-65
2021/04/05 04:53:52;;;;;;;1999.90;999.90;;;;;;;3.12;63.38;97325.47;5022491;28;20042;-65
2021/04/05 04:56:18;;;;;;;1999.90;999.90;;;;;;;2.98;63.22;97313.75;5027071;28;20061;-65
2021/04/05 04:58:45;;;;;;;1999.90;999.90;;;;;;;3.07;63.05;97311.13;5021499;28;20045;-65
2021/04/05 05:01:15;;;;;;;1999.90;999.90;;;;;;;3.11;63.07;97307.47;5017397;28;20056;-65
2021/04/05 05:03:50;;;;;;;1999.90;999.90;;;;;;;3.05;62.56;97303.25;5016358;28;20046;-65
2021/04/05 05:06:20;;;;;;;1999.90;999.90;;;;;;;3.13;62.50;97294.31;5026427;28;20053;-65
2021/04/05 05:08:46;;;;;;;1999.90;999.90;;;;;;;3.03;63.46;97297.25;5014731;28;20452;-65
2021/04/05 05:11:13;;;;;;;1999.90;999.90;;;;;;;3.34;62.43;97283.00;5019551;28;20049;-65
2021/04/05 05:13:40;;;;;;;1999.90;999.90;;;;;;;3.56;62.02;97273.25;5024262;28;20107;-65
2021/04/05 05:16:07;;;;;;;1999.90;999.90;;;;;;;3.29;62.04;97280.34;5024638;28;20053;-65
2021/04/05 05:18:35;;;;;;;1999.90;999.90;;;;;;;3.51;61.98;97268.69;5025372;28;20450;-65
2021/04/05 05:21:06;;;;;;;1999.90;999.90;;;;;;;3.60;61.36;97266.06;5016174;28;20445;-65
2021/04/05 05:23:38;;;;;;;1999.90;999.90;;;;;;;3.33;61.69;97273.16;5018422;28;20045;-65
2021/04/05 05:26:05;;;;;;;1999.90;999.90;;;;;;;3.41;61.81;97275.19;5018446;28;20493;-65
2021/04/05 05:28:36;;;;;;;1999.90;999.90;;;;;;;3.55;60.98;97263.44;5023063;28;20046;-65
2021/04/05 05:31:04;;;;;;;1999.90;999.90;;;;;;;3.60;60.94;97264.13;5018171;28;20050;-65
2021/04/05 05:33:30;;;;;;;1999.90;999.90;;;;;;;3.48;60.84;97258.38;5025880;28;20508;-64
2021/04/05 05:35:59;;;;;;;1999.90;999.90;;;;;;;3.60;61.17;97257.84;5019466;28;20065;-65
2021/04/05 05:38:26;;;;;;;1999.90;999.90;;;;;;;3.55;60.85;97255.25;5018716;28;20057;-64
2021/04/05 05:40:54;;;;;;;1999.90;999.90;;;;;;;3.59;60.63;97251.59;5026085;28;20386;-65
2021/04/05 05:43:32;;;;;;;1999.90;999.90;;;;;;;3.76;60.40;97261.88;5016516;28;20048;-65
2021/04/05 05:46:12;;;;;;;1999.90;999.90;;;;;;;3.75;61.21;97256.72;5017646;28;20049;-65
2021/04/05 05:49:04;;;;;;;1999.90;999.90;;;;;;;4.02;60.18;97253.06;5013621;28;20350;-65
2021/04/05 05:51:51;;;;;;;1999.90;999.90;;;;;;;4.01;60.07;97256.94;5017398;28;21426;-65
2021/04/05 05:54:39;;;;;;;1999.90;999.90;;;;;;;4.01;59.96;97256.94;5016241;28;20046;-65
2021/04/05 05:57:21;;;;;;;1999.90;999.90;;;;;;;4.44;58.97;97256.44;5015824;28;20054;-65
2021/04/05 06:00:07;;;;;;;1999.90;999.90;;;;;;;4.30;58.96;97247.50;5018666;28;20189;-65
2021/04/05 06:03:10;;;;;;;1999.90;999.90;;;;;;;4.44;59.02;97231.81;5018602;28;20500;-65
2021/04/05 06:06:01;;;;;;;1999.90;999.90;;;;;;;4.47;58.83;97236.66;5019081;28;20058;-65
2021/04/05 06:08:44;;;;;;;1999.90;999.90;;;;;;;4.38;58.68;97233.88;5027941;28;20054;-65
2021/04/05 06:11:37;;;;;;;1999.90;999.90;;;;;;;4.15;59.47;97235.78;5025569;28;20404;-65
2021/04/05 06:14:18;;;;;;;1999.90;999.90;;;;;;;4.39;58.91;97232.75;5026828;28;20046;-65
2021/04/05 06:16:52;;;;;;;1999.90;999.90;;;;;;;4.50;58.91;97214.13;5020349;28;20095;-65
2021/04/05 06:19:34;;;;;;;1999.90;999.90;;;;;;;4.70;58.35;97201.81;5016969;28;20049;-65
2021/04/05 06:22:19;;;;;;;1999.90;999.90;;;;;;;4.93;58.00;97193.56;5022422;28;20053;-65
2021/04/05 06:24:56;;;;;;;1999.90;999.90;;;;;;;4.70;58.08;97190.06;5027641;28;20482;-64
2021/04/05 06:27:41;;;;;;;1999.90;999.90;;;;;;;4.68;57.98;97186.84;5022797;28;20109;-64
2021/04/05 06:30:34;;;;;;;1999.90;999.90;;;;;;;4.86;58.20;97188.53;5022669;28;20266;-65
2021/04/05 06:33:09;;;;;;;1999.90;999.90;;;;;;;4.83;57.99;97182.88;5024401;28;20045;-63
2021/04/05 06:36:06;;;;;;;1999.90;999.90;;;;;;;4.94;58.39;97173.25;5022637;28;20057;-64
2021/04/05 06:39:02;;;;;;;1999.90;999.90;;;;;;;5.09;57.60;97169.25;5021811;28;20721;-64
2021/04/05 06:41:51;;;;;;;1999.90;999.90;;;;;;;5.16;57.38;97163.31;5013511;28;20049;-64
2021/04/05 06:44:40;;;;;;;1999.90;999.90;;;;;;;5.23;57.12;97167.19;5021821;28;20052;-64
2021/04/05 06:47:35;;;;;;;1999.90;999.90;;;;;;;5.17;57.85;97171.22;5026706;28;20054;-64
2021/04/05 06:50:37;;;;;;;1999.90;999.90;;;;;;;5.19;57.54;97171.69;5026394;28;20477;-64
2021/04/05 06:53:31;;;;;;;1999.90;999.90;;;;;;;5.33;57.52;97171.59;5021670;28;20507;-64
2021/04/05 06:55:58;;;;;;;1999.90;999.90;;;;;;;5.80;57.63;97165.47;5017460;28;20060;-64
2021/04/05 06:58:36;;;;;;;1999.90;999.90;;;;;;;5.93;56.31;97158.22;5017190;28;20053;-64
2021/04/05 07:01:54;;;;;;;1999.90;999.90;;;;;;;5.84;56.05;97149.97;5026894;28;20052;-64
2021/04/05 07:04:54;;;;;;;1999.90;999.90;;;;;;;6.51;56.11;97143.09;5022423;28;20046;-65
2021/04/05 07:07:39;;;;;;;1999.90;999.90;;;;;;;6.59;54.81;97135.16;5015836;28;20461;-65
2021/04/05 07:10:22;;;;;;;1999.90;999.90;;;;;;;6.64;54.89;97130.28;5023776;28;20104;-65
2021/04/05 07:13:07;;;;;;;1999.90;999.90;;;;;;;6.55;54.67;97118.53;5027125;28;20550;-63
2021/04/05 07:15:45;;;;;;;1999.90;999.90;;;;;;;6.35;56.03;97129.06;5019563;28;20161;-65
2021/04/05 07:18:38;;;;;;;1999.90;999.90;;;;;;;6.83;54.85;97123.56;5025389;28;20057;-64
2021/04/05 07:21:28;;;;;;;1999.90;999.90;;;;;;;6.81;55.10;97112.91;5018394;28;20050;-65
2021/04/05 07:24:32;;;;;;;1999.90;999.90;;;;;;;6.92;54.24;97113.31;5021084;28;20045;-65
2021/04/05 07:27:08;;;;;;;1999.90;999.90;;;;;;;6.71;55.12;97107.78;5020542;28;20101;-64
2021/04/05 07:29:49;;;;;;;1999.90;999.90;;;;;;;6.59;55.99;97111.22;5024636;28;20049;-64
2021/04/05 07:32:34;;;;;;;1999.90;999.90;;;;;;;6.78;54.58;97099.84;5023535;28;20049;-64
2021/04/05 07:35:24;;;;;;;1999.90;999.90;;;;;;;6.95;54.68;97093.44;5014299;28;20049;-64
2021/04/05 07:38:03;;;;;;;1999.90;999.90;;;;;;;7.09;54.11;97097.91;5021569;28;20042;-64
2021/04/05 07:40:42;;;;;;;1999.90;999.90;;;;;;;7.39;54.30;97095.91;5018048;28;20068;-65
2021/04/05 07:43:20;;;;;;;1999.90;999.90;;;;;;;7.58;54.04;97081.69;5014440;28;20059;-64
2021/04/05 07:46:08;;;;;;;1999.90;999.90;;;;;;;7.99;53.65;97068.16;5018964;28;20525;-65
2021/04/05 07:48:38;;;;;;;1999.90;999.90;;;;;;;8.17;53.38;97057.78;5016140;28;20049;-65
2021/04/05 07:51:16;;;;;;;1999.90;999.90;;;;;;;8.31;53.19;97049.19;5014826;28;20436;-65
2021/04/05 07:54:03;;;;;;;1999.90;999.90;;;;;;;8.24;52.55;97044.25;5016496;28;20045;-63
2021/04/05 07:56:41;;;;;;;1999.90;999.90;;;;;;;8.25;52.99;97048.63;5018834;28;20075;-64
2021/04/05 07:59:38;;;;;;;1999.90;999.90;;;;;;;8.93;51.42;97042.56;5022105;28;20057;-64
2021/04/05 08:02:10;;;;;;;1999.90;999.90;;;;;;;8.67;51.91;97031.91;5024198;28;20056;-64
2021/04/05 08:04:54;;;;;;;1999.90;999.90;;;;;;;8.25;52.91;97029.34;5023738;28;20053;-64
2021/04/05 08:07:58;;;;;;;1999.90;999.90;;;;;;;8.51;52.61;97022.72;5018246;28;20076;-64
2021/04/05 08:10:30;;;;;;;1999.90;999.90;;;;;;;8.33;52.59;97017.41;5023664;28;20092;-64
2021/04/05 08:13:08;;;;;;;1999.90;999.90;;;;;;;8.38;53.09;97017.19;5011066;28;20042;-64
2021/04/05 08:15:42;;;;;;;1999.90;999.90;;;;;;;8.69;52.17;97007.56;5024261;28;20103;-64
2021/04/05 08:18:23;;;;;;;1999.90;999.90;;;;;;;8.89;52.01;97000.31;5013624;28;20509;-64
2021/04/05 08:21:06;;;;;;;1999.90;999.90;;;;;;;8.63;52.76;96992.41;5022655;28;20052;-64
2021/04/05 08:24:12;;;;;;;1999.90;999.90;;;;;;;8.62;52.30;96985.31;5019591;28;20069;-64
2021/04/05 08:26:48;;;;;;;1999.90;999.90;;;;;;;9.19;50.68;96979.91;5024534;28;20050;-64
2021/04/05 08:29:42;;;;;;;1999.90;999.90;;;;;;;8.93;51.29;96970.91;5021114;28;20401;-64
2021/04/05 08:32:49;;;;;;;1999.90;999.90;;;;;;;9.21;51.14;96978.38;5024589;28;20050;-64
2021/04/05 08:35:25;;;;;;;1999.90;999.90;;;;;;;9.57;51.07;96967.56;5010385;28;20058;-63
2021/04/05 08:38:30;;;;;;;1999.90;999.90;;;;;;;9.76;49.56;96956.63;5017754;28;20068;-64
2021/04/05 08:41:07;;;;;;;1999.90;999.90;;;;;;;9.57;50.05;96964.78;5023897;28;20128;-64
2021/04/05 08:43:43;;;;;;;1999.90;999.90;;;;;;;9.48;50.12;96964.94;5022059;28;20057;-64
2021/04/05 08:46:14;;;;;;;1999.90;999.90;;;;;;;9.73;50.44;96960.09;5014978;28;20050;-64
2021/04/05 08:48:43;;;;;;;1999.90;999.90;;;;;;;10.29;48.45;96952.84;5019275;28;20057;-64
2021/04/05 08:51:16;;;;;;;1999.90;999.90;;;;;;;9.81;49.36;96939.81;5021592;28;20053;-64
2021/04/05 08:53:48;;;;;;;1999.90;999.90;;;;;;;9.78;50.05;96935.00;5019179;28;20158;-64
2021/04/05 08:56:17;;;;;;;1999.90;999.90;;;;;;;9.76;50.77;96936.50;5019738;28;20057;-64
2021/04/05 08:59:01;;;;;;;1999.90;999.90;;;;;;;10.00;50.38;96930.03;5024132;28;20060;-63
2021/04/05 09:01:50;;;;;;;1999.90;999.90;;;;;;;10.01;49.54;96929.66;5019347;28;20481;-63
2021/04/05 09:04:24;;;;;;;1999.90;999.90;;;;;;;9.96;49.92;96927.19;5021842;28;20444;-63
2021/04/05 09:07:08;;;;;;;1999.90;999.90;;;;;;;10.20;49.99;96926.19;5018819;28;20056;-65
2021/04/05 09:09:36;;;;;;;1999.90;999.90;;;;;;;9.58;50.89;96906.47;5024015;28;20080;-64
2021/04/05 09:12:06;;;;;;;1999.90;999.90;;;;;;;9.68;51.06;96914.25;5019742;28;20099;-65
2021/04/05 09:14:53;;;;;;;1999.90;999.90;;;;;;;9.13;52.16;96908.44;5019006;28;20099;-64
2021/04/05 09:17:40;;;;;;;1999.90;999.90;;;;;;;9.22;51.07;96902.78;5018088;28;20133;-64
2021/04/05 09:20:27;;;;;;;1999.90;999.90;;;;;;;9.06;52.21;96908.22;5016851;28;20111;-65
2021/04/05 09:23:23;;;;;;;1999.90;999.90;;;;;;;9.16;52.68;96907.72;5013579;28;20041;-64
2021/04/05 09:26:14;;;;;;;1999.90;999.90;;;;;;;9.66;50.94;96905.53;5014037;28;20463;-65
2021/04/05 09:29:01;;;;;;;1999.90;999.90;;;;;;;9.98;49.28;96905.53;5014699;28;20103;-64
2021/04/05 09:31:41;;;;;;;1999.90;999.90;;;;;;;10.13;49.21;96901.16;5013916;28;20045;-66
2021/04/05 09:34:30;;;;;;;1999.90;999.90;;;;;;;9.54;50.77;96897.31;5006042;28;20120;-65
2021/04/05 09:37:08;;;;;;;1999.90;999.90;;;;;;;9.69;50.18;96876.41;5010951;28;20053;-65
2021/04/05 09:39:50;;;;;;;1999.90;999.90;;;;;;;9.56;50.90;96861.91;5010099;28;20068;-65
2021/04/05 09:42:54;;;;;;;1999.90;999.90;;;;;;;10.24;50.43;96868.25;5021164;28;20515;-65
2021/04/05 09:45:41;;;;;;;1999.90;999.90;;;;;;;10.27;50.88;96850.97;5014961;28;20056;-65
2021/04/05 09:48:16;;;;;;;1999.90;999.90;;;;;;;11.16;48.76;96856.78;5020133;28;21533;-65
2021/04/05 09:51:02;;;;;;;1999.90;999.90;;;;;;;11.52;47.71;96835.31;5009601;28;20092;-65
2021/04/05 09:53:37;;;;;;;1999.90;999.90;;;;;;;10.82;48.46;96836.34;5022814;28;20099;-64
2021/04/05 09:56:10;;;;;;;1999.90;999.90;;;;;;;10.90;48.35;96833.38;5010766;28;20456;-64
2021/04/05 09:58:49;;;;;;;1999.90;999.90;;;;;;;11.03;47.57;96816.63;5014207;28;20054;-64
2021/04/05 10:01:21;;;;;;;1999.90;999.90;;;;;;;11.84;46.82;96823.97;5012992;28;20453;-64
2021/04/05 10:03:52;;;;;;;1999.90;999.90;;;;;;;11.71;46.95;96817.03;5015231;28;20046;-64
2021/04/05 10:06:19;;;;;;;1999.90;999.90;;;;;;;11.69;46.14;96800.00;5017843;28;20054;-65
2021/04/05 10:08:48;;;;;;;1999.90;999.90;;;;;;;12.23;46.42;96811.94;5014331;28;20050;-65
2021/04/05 10:11:15;;;;;;;1999.90;999.90;;;;;;;11.94;46.24;96801.22;5010245;28;20080;-64
2021/04/05 10:13:55;;;;;;;1999.90;999.90;;;;;;;12.10;46.08;96809.38;5012183;28;20060;-66
2021/04/05 10:16:23;;;;;;;1999.90;999.90;;;;;;;12.07;46.50;96801.00;5011407;28;20122;-66
2021/04/05 10:19:13;;;;;;;1999.90;999.90;;;;;;;12.47;45.12;96794.03;5015706;28;20052;-65
2021/04/05 10:21:50;;;;;;;1999.90;999.90;;;;;;;12.81;45.23;96796.84;5016102;28;20049;-64
2021/04/05 10:24:21;;;;;;;1999.90;999.90;;;;;;;12.99;42.86;96783.97;5017223;28;20058;-65
2021/04/05 10:26:50;;;;;;;1999.90;999.90;;;;;;;12.96;43.10;96795.81;5012798;28;20054;-66
2021/04/05 10:29:19;;;;;;;1999.90;999.90;;;;;;;13.02;43.71;96791.53;5011517;28;20303;-65
2021/04/05 10:31:48;;;;;;;1999.90;999.90;;;;;;;13.48;43.65;96789.63;5007975;28;20054;-66
2021/04/05 10:34:16;;;;;;;1999.90;999.90;;;;;;;12.98;41.54;96779.59;5017588;28;20049;-65
2021/04/05 10:36:49;;;;;;;1999.90;999.90;;;;;;;12.08;42.69;96795.09;5012560;28;20346;-65
2021/04/05 10:39:15;;;;;;;1999.90;999.90;;;;;;;11.48;43.41;96784.63;5010999;28;20076;-65
2021/04/05 10:42:05;;;;;;;1999.90;999.90;;;;;;;11.15;44.39;96785.22;5010525;28;20053;-65
2021/04/05 10:44:37;;;;;;;1999.90;999.90;;;;;;;11.17;45.54;96791.22;5011221;28;20054;-65
2021/04/05 10:47:06;;;;;;;;;;;;;;;11.05;45.83;96789.41;5012057;28;20053;-66
2021/04/05 10:49:33;;;;;;;1999.90;999.90;;;;;;;11.25;46.23;96790.97;5015156;28;19970;-64
2021/04/05 10:52:11;;;;;;;1999.90;999.90;;;;;;;11.99;44.71;96780.72;5016172;28;20054;-66
2021/04/05 10:54:43;;;;;;;1999.90;999.90;;;;;;;12.63;43.68;96772.47;5012803;28;20513;-63
2021/04/05 10:57:16;;;;;;;1999.90;999.90;;;;;;;12.98;42.51;96771.28;5011238;28;20107;-63
2021/04/05 10:59:51;;;;;;;1999.90;999.90;;;;;;;13.17;42.45;96769.47;5024002;28;20138;-64
2021/04/05 11:02:37;;;;;;;1999.90;999.90;;;;;;;12.66;42.39;96773.69;5018104;28;20139;-65
2021/04/05 11:05:17;;;;;;;1999.90;999.90;;;;;;;12.38;44.05;96761.06;5020034;28;20103;-64
2021/04/05 11:07:47;;;;;;;1999.90;999.90;;;;;;;12.04;44.02;96755.44;5020897;28;20501;-64
2021/04/05 11:10:20;;;;;;;1999.90;999.90;;;;;;;12.23;44.46;96756.50;5015453;28;20489;-64
2021/04/05 11:12:52;;;;;;;1999.90;999.90;;;;;;;11.36;44.98;96754.38;5017313;28;20057;-64
2021/04/05 11:15:20;;;;;;;1999.90;999.90;;;;;;;12.47;44.23;96756.00;5014846;28;20148;-65
2021/04/05 11:17:53;;;;;;;1999.90;999.90;;;;;;;12.71;42.67;96742.84;5017523;28;20053;-65
2021/04/05 11:20:26;;;;;;;1999.90;999.90;;;;;;;12.74;42.75;96752.38;5017284;28;20520;-65
2021/04/05 11:23:03;;;;;;;1999.90;999.90;;;;;;;12.55;43.14;96743.06;5016598;28;20382;-63
2021/04/05 11:25:41;;;;;;;1999.90;999.90;;;;;;;12.57;43.50;96737.13;5026508;28;20083;-65
2021/04/05 11:28:19;;;;;;;1999.90;999.90;;;;;;;12.14;44.63;96748.47;5014973;28;20305;-65
2021/04/05 11:30:49;;;;;;;1999.90;999.90;;;;;;;12.05;44.69;96751.50;5019426;28;20050;-65
2021/04/05 11:33:24;;;;;;;1999.90;999.90;;;;;;;11.91;44.67;96746.53;5022860;28;20045;-65
2021/04/05 11:35:53;;;;;;;1999.90;999.90;;;;;;;11.69;45.93;96744.63;5016142;28;20416;-64
2021/04/05 11:38:21;;;;;;;1999.90;999.90;;;;;;;11.70;45.47;96751.75;5022014;28;20061;-63